createdAt,value
2023-07-30T00:00:37.256Z,25.66
2023-07-30T00:01:39.746Z,25.65
2023-07-30T00:02:42.449Z,25.65
2023-07-30T00:03:45.708Z,25.66
2023-07-30T00:04:48.520Z,25.66
2023-07-30T00:05:55.930Z,25.65
2023-07-30T00:06:58.160Z,25.65
2023-07-30T00:08:01.597Z,25.64
2023-07-30T00:09:03.948Z,25.64
2023-07-30T00:10:08.342Z,25.63
2023-07-30T00:11:10.559Z,25.61
2023-07-30T00:12:13.756Z,25.57
2023-07-30T00:13:17.443Z,25.56
2023-07-30T00:14:20.593Z,25.56
2023-07-30T00:15:23.083Z,25.55
2023-07-30T00:16:27.756Z,25.54
2023-07-30T00:17:29.940Z,25.52
2023-07-30T00:18:33.275Z,25.50
2023-07-30T00:19:36.618Z,25.47
2023-07-30T00:20:39.771Z,25.45
2023-07-30T00:21:44.832Z,25.43
2023-07-30T00:22:47.971Z,25.42
2023-07-30T00:23:50.129Z,25.41
2023-07-30T00:24:53.320Z,25.39
2023-07-30T00:25:55.547Z,25.39
2023-07-30T00:26:58.796Z,25.38
2023-07-30T00:28:00.950Z,25.36
2023-07-30T00:29:05.537Z,25.34
2023-07-30T00:30:08.754Z,25.33
2023-07-30T00:31:12.017Z,25.30
2023-07-30T00:32:16.984Z,25.27
2023-07-30T00:33:20.176Z,25.23
2023-07-30T00:34:22.485Z,25.22
2023-07-30T00:35:25.698Z,25.21
2023-07-30T00:36:27.850Z,25.20
2023-07-30T00:37:31.024Z,25.19
2023-07-30T00:38:33.178Z,25.19
2023-07-30T00:39:36.402Z,25.17
2023-07-30T00:40:41.662Z,25.15
2023-07-30T00:41:43.828Z,25.15
2023-07-30T00:42:47.004Z,25.15
2023-07-30T00:43:49.189Z,25.15
2023-07-30T00:44:53.694Z,25.15
2023-07-30T00:45:56.484Z,25.14
2023-07-30T00:46:59.830Z,25.13
2023-07-30T00:48:02.500Z,25.13
2023-07-30T00:49:05.845Z,25.12
2023-07-30T00:50:09.419Z,25.11
2023-07-30T00:51:15.635Z,25.10
2023-07-30T00:52:20.222Z,25.10
2023-07-30T00:53:24.451Z,25.10
2023-07-30T00:54:26.964Z,25.10
2023-07-30T00:55:30.439Z,25.09
2023-07-30T00:56:32.703Z,25.09
2023-07-30T00:57:37.420Z,25.08
2023-07-30T00:58:39.869Z,25.07
2023-07-30T00:59:43.315Z,25.07
2023-07-30T01:00:47.610Z,25.07
2023-07-30T01:01:52.818Z,25.07
2023-07-30T01:02:56.377Z,25.07
2023-07-30T01:03:58.739Z,25.06
2023-07-30T01:05:04.492Z,25.06
2023-07-30T01:06:06.869Z,25.06
2023-07-30T01:07:09.074Z,25.06
2023-07-30T01:08:14.431Z,25.05
2023-07-30T01:09:17.998Z,25.03
2023-07-30T01:10:21.988Z,25.03
2023-07-30T01:11:24.334Z,25.01
2023-07-30T01:12:28.519Z,24.99
2023-07-30T01:13:30.915Z,24.98
2023-07-30T01:14:34.384Z,24.97
2023-07-30T01:15:37.714Z,24.94
2023-07-30T01:16:42.290Z,24.92
2023-07-30T01:17:44.645Z,24.91
2023-07-30T01:18:48.621Z,24.88
2023-07-30T01:19:50.930Z,24.86
2023-07-30T01:21:00.087Z,24.85
2023-07-30T01:22:02.376Z,24.85
2023-07-30T01:23:05.547Z,24.84
2023-07-30T01:24:07.756Z,24.84
2023-07-30T01:25:10.953Z,24.82
2023-07-30T01:26:24.844Z,24.81
2023-07-30T01:27:30.666Z,24.81
2023-07-30T01:28:38.750Z,24.80
2023-07-30T01:29:45.144Z,24.81
2023-07-30T01:30:47.738Z,24.81
2023-07-30T01:31:57.379Z,24.81
2023-07-30T01:32:59.664Z,24.80
2023-07-30T01:34:04.849Z,24.79
2023-07-30T01:35:09.429Z,24.79
2023-07-30T01:36:17.635Z,24.79
2023-07-30T01:37:21.037Z,24.80
2023-07-30T01:38:23.430Z,24.80
2023-07-30T01:39:26.762Z,24.79
2023-07-30T01:40:29.259Z,24.77
2023-07-30T01:41:32.559Z,24.78
2023-07-30T01:42:34.838Z,24.77
2023-07-30T01:43:37.144Z,24.77
2023-07-30T01:44:40.273Z,24.76
2023-07-30T01:45:42.432Z,24.76
2023-07-30T01:46:45.552Z,24.77
2023-07-30T01:47:47.927Z,24.77
2023-07-30T01:48:51.207Z,24.78
2023-07-30T01:49:53.429Z,24.79
2023-07-30T01:50:56.618Z,24.80
2023-07-30T01:52:00.277Z,24.80
2023-07-30T01:53:03.448Z,24.81
2023-07-30T01:54:05.651Z,24.81
2023-07-30T01:55:09.608Z,24.80
2023-07-30T01:56:11.818Z,24.80
2023-07-30T01:57:15.023Z,24.81
2023-07-30T01:58:17.205Z,24.82
2023-07-30T01:59:19.359Z,24.82
2023-07-30T02:00:22.542Z,24.83
2023-07-30T02:01:24.837Z,24.84
2023-07-30T02:02:28.130Z,24.85
2023-07-30T02:03:30.450Z,24.86
2023-07-30T02:04:33.757Z,24.87
2023-07-30T02:05:35.954Z,24.88
2023-07-30T02:06:39.077Z,24.88
2023-07-30T02:07:42.620Z,24.88
2023-07-30T02:08:45.771Z,24.88
2023-07-30T02:09:47.964Z,24.87
2023-07-30T02:10:57.756Z,24.87
2023-07-30T02:11:59.931Z,24.87
2023-07-30T02:13:03.067Z,24.87
2023-07-30T02:14:05.263Z,24.87
2023-07-30T02:15:09.374Z,24.86
2023-07-30T02:16:11.598Z,24.85
2023-07-30T02:17:14.788Z,24.85
2023-07-30T02:18:16.994Z,24.84
2023-07-30T02:19:20.920Z,24.80
2023-07-30T02:20:23.092Z,24.77
2023-07-30T02:21:26.233Z,24.73
2023-07-30T02:22:28.548Z,24.68
2023-07-30T02:23:33.144Z,24.64
2023-07-30T02:24:35.343Z,24.60
2023-07-30T02:25:39.886Z,24.55
2023-07-30T02:26:42.246Z,24.51
2023-07-30T02:27:44.480Z,24.47
2023-07-30T02:28:47.681Z,24.43
2023-07-30T02:29:49.899Z,24.38
2023-07-30T02:30:53.085Z,24.33
2023-07-30T02:31:55.529Z,24.29
2023-07-30T02:32:58.835Z,24.27
2023-07-30T02:34:01.075Z,24.22
2023-07-30T02:35:04.456Z,24.18
2023-07-30T02:36:06.640Z,24.15
2023-07-30T02:37:09.776Z,24.13
2023-07-30T02:38:11.941Z,24.12
2023-07-30T02:39:16.469Z,24.11
2023-07-30T02:40:18.693Z,24.11
2023-07-30T02:41:21.885Z,24.12
2023-07-30T02:42:24.067Z,24.13
2023-07-30T02:43:27.305Z,24.13
2023-07-30T02:44:29.480Z,24.15
2023-07-30T02:45:32.832Z,24.17
2023-07-30T02:46:35.042Z,24.19
2023-07-30T02:47:38.243Z,24.19
2023-07-30T02:48:40.567Z,24.18
2023-07-30T02:49:43.921Z,24.19
2023-07-30T02:50:46.279Z,24.21
2023-07-30T02:51:50.222Z,24.23
2023-07-30T02:52:52.412Z,24.24
2023-07-30T02:53:59.693Z,24.26
2023-07-30T02:55:03.706Z,24.28
2023-07-30T02:56:06.870Z,24.30
2023-07-30T02:57:09.096Z,24.30
2023-07-30T02:58:12.270Z,24.30
2023-07-30T02:59:14.492Z,24.29
2023-07-30T03:00:17.999Z,24.29
2023-07-30T03:01:20.250Z,24.28
2023-07-30T03:02:23.572Z,24.26
2023-07-30T03:03:25.819Z,24.25
2023-07-30T03:04:28.986Z,24.22
2023-07-30T03:05:31.179Z,24.18
2023-07-30T03:06:34.326Z,24.16
2023-07-30T03:07:36.830Z,24.15
2023-07-30T03:08:39.976Z,24.12
2023-07-30T03:09:42.230Z,24.09
2023-07-30T03:10:46.775Z,24.06
2023-07-30T03:11:48.943Z,24.03
2023-07-30T03:12:52.045Z,24.02
2023-07-30T03:13:54.191Z,24.00
2023-07-30T03:14:57.461Z,23.98
2023-07-30T03:15:59.622Z,23.95
2023-07-30T03:17:02.875Z,23.92
2023-07-30T03:18:05.175Z,23.90
2023-07-30T03:19:08.584Z,23.88
2023-07-30T03:20:11.310Z,23.85
2023-07-30T03:21:14.501Z,23.83
2023-07-30T03:22:17.407Z,23.80
2023-07-30T03:23:20.665Z,23.77
2023-07-30T03:24:22.816Z,23.75
2023-07-30T03:25:25.957Z,23.73
2023-07-30T03:26:29.454Z,23.70
2023-07-30T03:27:32.564Z,23.68
2023-07-30T03:28:34.863Z,23.67
2023-07-30T03:29:38.024Z,23.65
2023-07-30T03:30:40.178Z,23.62
2023-07-30T03:31:43.333Z,23.61
2023-07-30T03:32:45.486Z,23.61
2023-07-30T03:33:48.729Z,23.60
2023-07-30T03:34:50.927Z,23.59
2023-07-30T03:35:54.140Z,23.57
2023-07-30T03:37:00.290Z,23.56
2023-07-30T03:38:04.386Z,23.56
2023-07-30T03:39:07.505Z,23.55
2023-07-30T03:40:10.404Z,23.54
2023-07-30T03:41:12.583Z,23.54
2023-07-30T03:42:17.285Z,23.53
2023-07-30T03:43:19.410Z,23.52
2023-07-30T03:44:22.606Z,23.52
2023-07-30T03:45:24.856Z,23.52
2023-07-30T03:46:28.023Z,23.52
2023-07-30T03:47:30.306Z,23.52
2023-07-30T03:48:32.539Z,23.53
2023-07-30T03:49:35.713Z,23.55
2023-07-30T03:50:37.959Z,23.57
2023-07-30T03:51:41.184Z,23.58
2023-07-30T03:52:43.347Z,23.60
2023-07-30T03:53:45.506Z,23.61
2023-07-30T03:54:48.645Z,23.62
2023-07-30T03:55:50.792Z,23.63
2023-07-30T03:56:53.886Z,23.65
2023-07-30T03:57:57.443Z,23.67
2023-07-30T03:59:00.622Z,23.68
2023-07-30T04:00:04.144Z,23.69
2023-07-30T04:01:08.166Z,23.70
2023-07-30T04:02:10.521Z,23.70
2023-07-30T04:03:13.788Z,23.71
2023-07-30T04:04:16.015Z,23.71
2023-07-30T04:05:19.273Z,23.72
2023-07-30T04:06:21.398Z,23.73
2023-07-30T04:07:24.534Z,23.74
2023-07-30T04:08:26.729Z,23.75
2023-07-30T04:09:29.834Z,23.76
2023-07-30T04:10:32.222Z,23.79
2023-07-30T04:11:34.497Z,23.80
2023-07-30T04:12:37.658Z,23.82
2023-07-30T04:13:42.048Z,23.85
2023-07-30T04:14:45.282Z,23.88
2023-07-30T04:15:48.817Z,23.91
2023-07-30T04:16:51.990Z,23.94
2023-07-30T04:17:54.277Z,23.97
2023-07-30T04:18:57.577Z,23.99
2023-07-30T04:19:59.757Z,24.01
2023-07-30T04:21:02.856Z,24.02
2023-07-30T04:22:05.095Z,24.04
2023-07-30T04:23:08.237Z,24.06
2023-07-30T04:24:10.465Z,24.09
2023-07-30T04:25:13.587Z,24.12
2023-07-30T04:26:15.730Z,24.16
2023-07-30T04:27:18.866Z,24.19
2023-07-30T04:28:21.067Z,24.21
2023-07-30T04:29:25.673Z,24.25
2023-07-30T04:30:27.900Z,24.28
2023-07-30T04:31:31.084Z,24.32
2023-07-30T04:32:33.272Z,24.35
2023-07-30T04:33:36.392Z,24.36
2023-07-30T04:34:39.584Z,24.37
2023-07-30T04:35:42.758Z,24.40
2023-07-30T04:36:45.003Z,24.42
2023-07-30T04:37:48.172Z,24.44
2023-07-30T04:38:50.325Z,24.45
2023-07-30T04:39:53.500Z,24.47
2023-07-30T04:40:55.633Z,24.48
2023-07-30T04:41:58.738Z,24.48
2023-07-30T04:43:00.872Z,24.49
2023-07-30T04:44:04.002Z,24.49
2023-07-30T04:45:08.801Z,24.49
2023-07-30T04:46:12.023Z,24.48
2023-07-30T04:47:14.222Z,24.48
2023-07-30T04:48:17.448Z,24.47
2023-07-30T04:49:19.642Z,24.47
2023-07-30T04:50:22.784Z,24.47
2023-07-30T04:51:25.034Z,24.47
2023-07-30T04:52:28.172Z,24.47
2023-07-30T04:53:30.623Z,24.48
2023-07-30T04:54:33.813Z,24.48
2023-07-30T04:55:36.070Z,24.48
2023-07-30T04:56:39.408Z,24.49
2023-07-30T04:57:41.522Z,24.50
2023-07-30T04:58:44.653Z,24.50
2023-07-30T04:59:46.822Z,24.51
2023-07-30T05:00:51.365Z,24.52
2023-07-30T05:01:53.587Z,24.54
2023-07-30T05:02:56.820Z,24.56
2023-07-30T05:03:59.055Z,24.59
2023-07-30T05:05:01.276Z,24.62
2023-07-30T05:06:04.474Z,24.64
2023-07-30T05:07:06.917Z,24.67
2023-07-30T05:08:10.253Z,24.69
2023-07-30T05:09:12.899Z,24.72
2023-07-30T05:10:17.265Z,24.74
2023-07-30T05:11:19.452Z,24.76
2023-07-30T05:12:21.587Z,24.79
2023-07-30T05:13:24.665Z,24.81
2023-07-30T05:14:26.845Z,24.83
2023-07-30T05:15:29.997Z,24.85
2023-07-30T05:16:33.589Z,24.87
2023-07-30T05:17:36.924Z,24.89
2023-07-30T05:18:39.180Z,24.93
2023-07-30T05:19:42.352Z,24.94
2023-07-30T05:20:47.044Z,24.96
2023-07-30T05:21:50.186Z,24.97
2023-07-30T05:22:52.384Z,24.99
2023-07-30T05:23:55.576Z,25.00
2023-07-30T05:24:57.893Z,25.02
2023-07-30T05:26:01.066Z,25.03
2023-07-30T05:27:03.252Z,25.04
2023-07-30T05:28:06.409Z,25.05
2023-07-30T05:29:08.548Z,25.06
2023-07-30T05:30:12.504Z,25.07
2023-07-30T05:31:14.785Z,25.08
2023-07-30T05:32:19.343Z,25.09
2023-07-30T05:33:21.555Z,25.10
2023-07-30T05:34:24.813Z,25.11
2023-07-30T05:35:26.957Z,25.11
2023-07-30T05:36:30.166Z,25.10
2023-07-30T05:37:32.349Z,25.10
2023-07-30T05:38:35.587Z,25.11
2023-07-30T05:39:38.085Z,25.12
2023-07-30T05:40:41.308Z,25.12
2023-07-30T05:41:43.461Z,25.12
2023-07-30T05:42:46.665Z,25.12
2023-07-30T05:43:49.009Z,25.11
2023-07-30T05:44:51.168Z,25.11
2023-07-30T05:45:54.395Z,25.11
2023-07-30T05:46:56.621Z,25.12
2023-07-30T05:48:01.161Z,25.13
2023-07-30T05:49:03.332Z,25.12
2023-07-30T05:50:07.467Z,25.12
2023-07-30T05:51:09.728Z,25.12
2023-07-30T05:52:12.934Z,25.12
2023-07-30T05:53:15.508Z,25.13
2023-07-30T05:54:19.531Z,25.13
2023-07-30T05:55:21.691Z,25.14
2023-07-30T05:56:24.844Z,25.15
2023-07-30T05:57:27.008Z,25.16
2023-07-30T05:58:30.130Z,25.16
2023-07-30T05:59:32.310Z,25.15
2023-07-30T06:00:35.564Z,25.15
2023-07-30T06:01:38.174Z,25.16
2023-07-30T06:02:41.630Z,25.17
2023-07-30T06:03:45.288Z,25.19
2023-07-30T06:04:49.822Z,25.21
2023-07-30T06:05:52.016Z,25.23
2023-07-30T06:06:55.145Z,25.24
2023-07-30T06:07:57.890Z,25.24
2023-07-30T06:09:01.376Z,25.24
2023-07-30T06:10:04.186Z,25.24
2023-07-30T06:11:07.755Z,25.24
2023-07-30T06:12:10.053Z,25.25
2023-07-30T06:13:13.260Z,25.26
2023-07-30T06:14:15.495Z,25.27
2023-07-30T06:15:18.635Z,25.27
2023-07-30T06:16:21.371Z,25.28
2023-07-30T06:17:24.915Z,25.29
2023-07-30T06:18:27.080Z,25.29
2023-07-30T06:19:31.604Z,25.30
2023-07-30T06:20:33.964Z,25.31
2023-07-30T06:21:37.596Z,25.32
2023-07-30T06:22:40.166Z,25.33
2023-07-30T06:23:43.344Z,25.33
2023-07-30T06:24:45.542Z,25.34
2023-07-30T06:25:48.700Z,25.35
2023-07-30T06:26:50.900Z,25.37
2023-07-30T06:27:54.103Z,25.37
2023-07-30T06:28:56.327Z,25.37
2023-07-30T06:29:59.427Z,25.37
2023-07-30T06:31:02.165Z,25.38
2023-07-30T06:32:06.000Z,25.39
2023-07-30T06:33:08.298Z,25.40
2023-07-30T06:34:11.453Z,25.43
2023-07-30T06:35:15.026Z,25.45
2023-07-30T06:36:18.230Z,25.48
2023-07-30T06:37:20.368Z,25.51
2023-07-30T06:38:24.468Z,25.54
2023-07-30T06:39:26.732Z,25.56
2023-07-30T06:40:30.000Z,25.58
2023-07-30T06:41:32.303Z,25.60
2023-07-30T06:42:35.526Z,25.62
2023-07-30T06:43:37.668Z,25.66
2023-07-30T06:44:40.905Z,25.69
2023-07-30T06:45:43.104Z,25.72
2023-07-30T06:46:46.301Z,25.75
2023-07-30T06:47:48.704Z,25.76
2023-07-30T06:48:52.422Z,25.78
2023-07-30T06:49:54.596Z,25.80
2023-07-30T06:50:59.203Z,25.82
2023-07-30T06:52:01.584Z,25.84
2023-07-30T06:53:04.757Z,25.86
2023-07-30T06:54:07.159Z,25.89
2023-07-30T06:55:10.726Z,25.90
2023-07-30T06:56:12.978Z,25.92
2023-07-30T06:57:16.196Z,25.93
2023-07-30T06:58:18.416Z,25.95
2023-07-30T06:59:21.622Z,25.97
2023-07-30T07:00:23.796Z,25.99
2023-07-30T07:01:27.122Z,26.01
2023-07-30T07:02:29.505Z,26.03
2023-07-30T07:03:32.890Z,26.06
2023-07-30T07:04:35.353Z,26.09
2023-07-30T07:05:38.634Z,26.11
2023-07-30T07:06:42.230Z,26.14
2023-07-30T07:07:45.736Z,26.18
2023-07-30T07:08:47.867Z,26.21
2023-07-30T07:09:51.051Z,26.24
2023-07-30T07:10:53.347Z,26.27
2023-07-30T07:11:56.513Z,26.29
2023-07-30T07:12:58.748Z,26.31
2023-07-30T07:14:01.985Z,26.33
2023-07-30T07:15:05.022Z,26.36
2023-07-30T07:16:08.320Z,26.39
2023-07-30T07:17:10.876Z,26.41
2023-07-30T07:18:14.039Z,26.43
2023-07-30T07:19:16.200Z,26.45
2023-07-30T07:20:19.439Z,26.47
2023-07-30T07:21:21.753Z,26.50
2023-07-30T07:22:26.295Z,26.52
2023-07-30T07:23:28.605Z,26.55
2023-07-30T07:24:32.441Z,26.58
2023-07-30T07:25:34.872Z,26.60
2023-07-30T07:26:38.052Z,26.61
2023-07-30T07:27:40.214Z,26.62
2023-07-30T07:28:43.399Z,26.64
2023-07-30T07:29:45.852Z,26.66
2023-07-30T07:30:49.159Z,26.67
2023-07-30T07:31:51.454Z,26.69
2023-07-30T07:32:54.943Z,26.71
2023-07-30T07:33:57.195Z,26.73
2023-07-30T07:35:00.485Z,26.76
2023-07-30T07:36:06.944Z,26.78
2023-07-30T07:37:10.172Z,26.80
2023-07-30T07:38:13.683Z,26.82
2023-07-30T07:39:16.892Z,26.84
2023-07-30T07:40:19.133Z,26.84
2023-07-30T07:41:22.567Z,26.86
2023-07-30T07:42:24.956Z,26.87
2023-07-30T07:43:28.561Z,26.89
2023-07-30T07:44:30.787Z,26.91
2023-07-30T07:45:34.070Z,26.94
2023-07-30T07:46:36.556Z,26.95
2023-07-30T07:47:39.873Z,26.97
2023-07-30T07:48:43.248Z,27.00
2023-07-30T07:49:46.361Z,27.02
2023-07-30T07:50:48.514Z,27.04
2023-07-30T07:51:51.761Z,27.06
2023-07-30T07:52:53.960Z,27.08
2023-07-30T07:53:59.341Z,27.09
2023-07-30T07:55:01.633Z,27.11
2023-07-30T07:56:05.297Z,27.11
2023-07-30T07:57:07.555Z,27.12
2023-07-30T07:58:10.787Z,27.13
2023-07-30T07:59:13.065Z,27.13
2023-07-30T08:00:16.243Z,27.14
2023-07-30T08:01:18.481Z,27.15
2023-07-30T08:02:21.760Z,27.17
2023-07-30T08:03:24.871Z,27.18
2023-07-30T08:04:28.377Z,27.19
2023-07-30T08:05:30.654Z,27.20
2023-07-30T08:06:33.858Z,27.21
2023-07-30T08:07:36.026Z,27.22
2023-07-30T08:08:39.207Z,27.24
2023-07-30T08:09:42.741Z,27.26
2023-07-30T08:10:47.992Z,27.28
2023-07-30T08:11:50.158Z,27.30
2023-07-30T08:12:53.497Z,27.32
2023-07-30T08:13:55.650Z,27.34
2023-07-30T08:14:58.850Z,27.37
2023-07-30T08:16:02.009Z,27.40
2023-07-30T08:17:05.860Z,27.43
2023-07-30T08:18:09.111Z,27.46
2023-07-30T08:19:11.290Z,27.48
2023-07-30T08:20:14.529Z,27.50
2023-07-30T08:21:18.682Z,27.53
2023-07-30T08:22:21.812Z,27.55
2023-07-30T08:23:23.990Z,27.56
2023-07-30T08:24:27.258Z,27.58
2023-07-30T08:25:31.043Z,27.59
2023-07-30T08:26:34.360Z,27.61
2023-07-30T08:27:36.513Z,27.62
2023-07-30T08:28:39.713Z,27.63
2023-07-30T08:29:42.178Z,27.64
2023-07-30T08:30:45.438Z,27.65
2023-07-30T08:31:47.609Z,27.66
2023-07-30T08:32:50.875Z,27.67
2023-07-30T08:33:53.113Z,27.68
2023-07-30T08:34:56.341Z,27.69
2023-07-30T08:35:59.581Z,27.70
2023-07-30T08:37:02.743Z,27.70
2023-07-30T08:38:05.401Z,27.71
2023-07-30T08:39:09.052Z,27.73
2023-07-30T08:40:11.898Z,27.74
2023-07-30T08:41:17.381Z,27.76
2023-07-30T08:42:19.541Z,27.78
2023-07-30T08:43:22.685Z,27.79
2023-07-30T08:44:25.123Z,27.80
2023-07-30T08:45:28.356Z,27.80
2023-07-30T08:46:30.635Z,27.81
2023-07-30T08:47:33.952Z,27.82
2023-07-30T08:48:36.211Z,27.83
2023-07-30T08:49:39.419Z,27.85
2023-07-30T08:50:42.379Z,27.85
2023-07-30T08:51:46.896Z,27.85
2023-07-30T08:52:49.880Z,27.86
2023-07-30T08:53:53.820Z,27.87
2023-07-30T08:54:58.162Z,27.88
2023-07-30T08:56:02.304Z,27.89
2023-07-30T08:57:07.237Z,27.89
2023-07-30T08:58:12.536Z,27.90
2023-07-30T08:59:14.811Z,27.91
2023-07-30T09:00:19.637Z,27.91
2023-07-30T09:01:21.844Z,27.92
2023-07-30T09:02:32.622Z,27.93
2023-07-30T09:03:36.704Z,27.95
2023-07-30T09:04:40.179Z,27.98
2023-07-30T09:05:42.382Z,27.99
2023-07-30T09:06:45.828Z,28.00
2023-07-30T09:07:48.464Z,28.01
2023-07-30T09:08:51.694Z,28.01
2023-07-30T09:09:53.839Z,28.02
2023-07-30T09:10:57.006Z,28.03
2023-07-30T09:12:00.839Z,28.05
2023-07-30T09:13:05.422Z,28.06
2023-07-30T09:14:08.034Z,28.06
2023-07-30T09:15:11.748Z,28.07
2023-07-30T09:16:15.832Z,28.09
2023-07-30T09:17:19.580Z,28.12
2023-07-30T09:18:21.707Z,28.14
2023-07-30T09:19:25.043Z,28.17
2023-07-30T09:20:27.247Z,28.19
2023-07-30T09:21:35.161Z,28.22
2023-07-30T09:22:40.008Z,28.23
2023-07-30T09:23:44.066Z,28.23
2023-07-30T09:24:46.248Z,28.25
2023-07-30T09:25:51.183Z,28.27
2023-07-30T09:26:53.553Z,28.29
2023-07-30T09:27:58.018Z,28.30
2023-07-30T09:29:01.666Z,28.31
2023-07-30T09:30:07.186Z,28.31
2023-07-30T09:32:16.510Z,28.31
2023-07-30T09:33:20.280Z,28.32
2023-07-30T09:34:25.107Z,28.32
2023-07-30T09:35:27.691Z,28.31
2023-07-30T09:36:30.842Z,28.30
2023-07-30T09:37:33.161Z,28.30
2023-07-30T09:38:41.386Z,28.29
2023-07-30T09:39:43.587Z,28.28
2023-07-30T09:40:48.891Z,28.27
2023-07-30T09:41:52.209Z,28.26
2023-07-30T09:42:55.536Z,28.25
2023-07-30T09:44:00.986Z,28.24
2023-07-30T09:45:04.182Z,28.22
2023-07-30T09:46:07.432Z,28.21
2023-07-30T09:47:11.980Z,28.21
2023-07-30T09:48:15.375Z,28.19
2023-07-30T09:49:20.037Z,28.18
2023-07-30T09:50:22.172Z,28.16
2023-07-30T09:51:26.098Z,28.15
2023-07-30T09:52:29.329Z,28.14
2023-07-30T09:53:35.847Z,28.13
2023-07-30T09:54:40.638Z,28.13
2023-07-30T09:55:44.019Z,28.12
2023-07-30T09:56:46.262Z,28.11
2023-07-30T09:57:48.634Z,28.10
2023-07-30T09:58:51.798Z,28.09
2023-07-30T09:59:55.440Z,28.09
2023-07-30T10:01:01.128Z,28.08
2023-07-30T10:02:03.901Z,28.08
2023-07-30T10:03:08.683Z,28.07
2023-07-30T10:04:11.967Z,28.06
2023-07-30T10:05:17.672Z,28.03
2023-07-30T10:06:20.336Z,28.00
2023-07-30T10:07:25.034Z,27.97
2023-07-30T10:08:31.752Z,27.95
2023-07-30T10:09:39.669Z,27.93
2023-07-30T10:10:43.809Z,27.92
2023-07-30T10:11:47.729Z,27.90
2023-07-30T10:12:53.814Z,27.89
2023-07-30T10:13:57.343Z,27.86
2023-07-30T10:15:02.981Z,27.83
2023-07-30T10:16:10.806Z,27.81
2023-07-30T10:17:14.314Z,27.80
2023-07-30T10:18:16.577Z,27.77
2023-07-30T10:19:20.783Z,27.75
2023-07-30T10:20:24.929Z,27.74
2023-07-30T10:21:30.755Z,27.72
2023-07-30T10:22:33.473Z,27.71
2023-07-30T10:23:36.691Z,27.69
2023-07-30T10:24:38.933Z,27.68
2023-07-30T10:25:46.530Z,27.66
2023-07-30T10:26:48.796Z,27.65
2023-07-30T10:27:53.206Z,27.64
2023-07-30T10:29:11.947Z,27.62
2023-07-30T10:30:18.622Z,27.61
2023-07-30T10:31:20.983Z,27.59
2023-07-30T10:32:24.114Z,27.56
2023-07-30T10:33:45.710Z,27.54
2023-07-30T10:34:49.620Z,27.50
2023-07-30T10:35:56.399Z,27.47
2023-07-30T10:36:59.646Z,27.46
2023-07-30T10:38:01.872Z,27.44
2023-07-30T10:39:14.728Z,27.41
2023-07-30T10:40:18.777Z,27.39
2023-07-30T10:41:22.859Z,27.37
2023-07-30T10:42:25.985Z,27.34
2023-07-30T10:43:29.848Z,27.31
2023-07-30T10:44:34.501Z,27.28
2023-07-30T10:45:38.048Z,27.26
2023-07-30T10:46:41.395Z,27.23
2023-07-30T10:47:43.950Z,27.20
2023-07-30T10:48:48.586Z,27.17
2023-07-30T10:49:53.859Z,27.14
2023-07-30T10:50:56.992Z,27.11
2023-07-30T10:51:59.177Z,27.09
2023-07-30T10:53:02.426Z,27.07
2023-07-30T10:54:07.387Z,27.05
2023-07-30T10:55:10.927Z,27.03
2023-07-30T10:56:14.186Z,27.02
2023-07-30T10:57:17.368Z,27.00
2023-07-30T10:58:19.647Z,26.97
2023-07-30T10:59:22.836Z,26.94
2023-07-30T11:00:25.194Z,26.92
2023-07-30T11:01:29.777Z,26.90
2023-07-30T11:02:32.160Z,26.87
2023-07-30T11:03:36.701Z,26.85
2023-07-30T11:04:39.019Z,26.83
2023-07-30T11:05:42.198Z,26.81
2023-07-30T11:06:47.814Z,26.79
2023-07-30T11:07:54.225Z,26.76
2023-07-30T11:08:56.395Z,26.73
2023-07-30T11:10:03.275Z,26.70
2023-07-30T11:11:07.253Z,26.67
2023-07-30T11:12:11.656Z,26.64
2023-07-30T11:13:14.018Z,26.59
2023-07-30T11:14:17.893Z,26.57
2023-07-30T11:15:20.167Z,26.55
2023-07-30T11:16:23.464Z,26.52
2023-07-30T11:17:27.270Z,26.50
2023-07-30T11:18:33.965Z,26.47
2023-07-30T11:19:36.323Z,26.44
2023-07-30T11:20:39.629Z,26.41
2023-07-30T11:21:46.142Z,26.38
2023-07-30T11:22:49.343Z,26.32
2023-07-30T11:23:52.405Z,26.29
2023-07-30T11:24:55.566Z,26.26
2023-07-30T11:25:57.771Z,26.22
2023-07-30T11:27:02.142Z,26.18
2023-07-30T11:28:04.754Z,26.14
2023-07-30T11:29:16.640Z,26.10
2023-07-30T11:30:19.683Z,26.07
2023-07-30T11:31:23.638Z,26.05
2023-07-30T11:32:31.007Z,26.04
2023-07-30T11:33:33.833Z,25.99
2023-07-30T11:34:40.224Z,25.96
2023-07-30T11:35:42.596Z,25.92
2023-07-30T11:36:46.351Z,25.89
2023-07-30T11:37:48.779Z,25.86
2023-07-30T11:38:54.220Z,25.83
2023-07-30T11:39:56.493Z,25.79
2023-07-30T11:41:00.219Z,25.76
2023-07-30T11:42:02.710Z,25.72
2023-07-30T11:43:06.943Z,25.68
2023-07-30T11:44:09.262Z,25.64
2023-07-30T11:45:22.449Z,25.60
2023-07-30T11:46:24.878Z,25.57
2023-07-30T11:47:29.646Z,25.43
2023-07-30T11:48:31.857Z,25.38
2023-07-30T11:49:35.064Z,25.36
2023-07-30T11:50:47.281Z,25.35
2023-07-30T11:51:51.263Z,25.34
2023-07-30T11:52:54.900Z,25.32
2023-07-30T11:54:00.268Z,25.31
2023-07-30T11:55:03.423Z,25.31
2023-07-30T11:56:06.748Z,25.31
2023-07-30T11:57:09.101Z,25.30
2023-07-30T11:58:13.675Z,25.29
2023-07-30T11:59:15.930Z,25.28
2023-07-30T12:00:23.354Z,25.27
2023-07-30T12:01:27.163Z,25.26
2023-07-30T12:02:32.022Z,25.25
2023-07-30T12:03:34.339Z,25.24
2023-07-30T12:04:49.029Z,25.21
2023-07-30T12:05:55.357Z,25.19
2023-07-30T12:06:58.469Z,25.18
2023-07-30T12:08:03.990Z,25.17
2023-07-30T12:09:12.541Z,25.16
2023-07-30T12:10:15.932Z,25.14
2023-07-30T12:11:21.857Z,25.13
2023-07-30T12:12:26.866Z,25.12
2023-07-30T12:13:29.178Z,25.11
2023-07-30T12:14:45.685Z,25.11
2023-07-30T12:15:52.672Z,25.10
2023-07-30T12:16:55.886Z,25.08
2023-07-30T12:17:59.722Z,25.07
2023-07-30T12:19:02.885Z,25.05
2023-07-30T12:20:07.905Z,25.04
2023-07-30T12:21:12.404Z,25.02
2023-07-30T12:22:14.685Z,25.00
2023-07-30T12:23:17.863Z,24.99
2023-07-30T12:24:20.068Z,24.98
2023-07-30T12:25:23.191Z,24.96
2023-07-30T12:26:25.501Z,24.94
2023-07-30T12:27:28.743Z,24.93
2023-07-30T12:28:31.269Z,24.91
2023-07-30T12:29:34.549Z,24.90
2023-07-30T12:30:37.881Z,24.89
2023-07-30T12:31:41.343Z,24.88
2023-07-30T12:32:43.966Z,24.86
2023-07-30T12:33:48.584Z,24.84
2023-07-30T12:34:50.879Z,24.83
2023-07-30T12:35:54.293Z,24.82
2023-07-30T12:36:57.580Z,24.81
2023-07-30T12:38:01.324Z,24.80
2023-07-30T12:39:03.744Z,24.80
2023-07-30T12:40:08.786Z,24.78
2023-07-30T12:41:11.030Z,24.78
2023-07-30T12:42:14.185Z,24.78
2023-07-30T12:43:20.118Z,24.77
2023-07-30T12:44:22.476Z,24.77
2023-07-30T12:45:25.721Z,24.77
2023-07-30T12:46:31.180Z,24.77
2023-07-30T12:47:36.382Z,24.78
2023-07-30T12:48:39.587Z,24.79
2023-07-30T12:49:43.144Z,24.79
2023-07-30T12:50:45.312Z,24.80
2023-07-30T12:51:48.500Z,24.81
2023-07-30T12:52:50.648Z,24.82
2023-07-30T12:53:53.862Z,24.83
2023-07-30T12:54:56.228Z,24.83
2023-07-30T12:55:59.499Z,24.83
2023-07-30T12:57:01.647Z,24.84
2023-07-30T12:58:05.191Z,24.85
2023-07-30T12:59:07.374Z,24.87
2023-07-30T13:00:10.514Z,24.89
2023-07-30T13:01:13.835Z,24.90
2023-07-30T13:02:16.163Z,24.92
2023-07-30T13:03:19.582Z,24.93
2023-07-30T13:04:22.470Z,24.95
2023-07-30T13:05:27.349Z,24.96
2023-07-30T13:06:29.596Z,24.98
2023-07-30T13:07:32.864Z,25.00
2023-07-30T13:08:35.115Z,25.02
2023-07-30T13:09:38.306Z,25.03
2023-07-30T13:10:40.488Z,25.05
2023-07-30T13:11:43.848Z,25.06
2023-07-30T13:12:46.086Z,25.08
2023-07-30T13:13:48.310Z,25.09
2023-07-30T13:14:51.578Z,25.10
2023-07-30T13:15:53.832Z,25.11
2023-07-30T13:16:57.117Z,25.12
2023-07-30T13:17:59.400Z,25.13
2023-07-30T13:19:02.646Z,25.14
2023-07-30T13:20:05.975Z,25.14
2023-07-30T13:21:10.528Z,25.14
2023-07-30T13:22:12.771Z,25.13
2023-07-30T13:23:16.117Z,25.13
2023-07-30T13:24:18.315Z,25.14
2023-07-30T13:25:21.630Z,25.14
2023-07-30T13:26:23.878Z,25.14
2023-07-30T13:27:27.066Z,25.14
2023-07-30T13:28:29.252Z,25.15
2023-07-30T13:29:33.082Z,25.15
2023-07-30T13:30:35.363Z,25.15
2023-07-30T13:31:38.810Z,25.14
2023-07-30T13:32:41.409Z,25.14
2023-07-30T13:33:46.892Z,25.12
2023-07-30T13:34:49.066Z,25.12
2023-07-30T13:35:52.352Z,25.12
2023-07-30T13:36:55.854Z,25.12
2023-07-30T13:37:59.189Z,25.12